| time (UTC) | temp C | wind direction | speed KPH | gust KPH | rain 1hr cm | rain 24hr cm | rain mn cm | humidity % | barometer mb |
| 20260507020003 | 12 | 97 | 3.2 | 4.8 | 0.00 | 0.00 | 0.00 | 86 | 1007.4 |
| 20260507013003 | 12 | 162 | 3.2 | 6.4 | 0.00 | 0.00 | 0.00 | 86 | 1007.1 |
| 20260507010003 | 12 | 191 | 1.6 | 6.4 | 0.00 | 0.00 | 0.00 | 85 | 1006.9 |
| 20260507003003 | 12 | 81 | 6.4 | 12.9 | 0.00 | 0.00 | 0.00 | 85 | 1006.4 |
| 20260507000024 | 12 | 93 | 11.3 | 19.3 | 0.00 | 0.00 | 0.00 | 88 | 1005.8 |
| 20260506233003 | 11 | 7 | 4.8 | 12.9 | 0.00 | 0.00 | 0.00 | 86 | 1006.3 |
| 20260506230003 | 11 | 275 | 6.4 | 20.9 | 0.00 | 0.00 | 0.00 | 86 | 1006.4 |
| 20260506223003 | 13 | 231 | 6.4 | 14.5 | 0.00 | 0.00 | 0.00 | 79 | 1006.2 |
| 20260506220004 | 14 | 114 | 4.8 | 12.9 | 0.00 | 0.00 | 0.00 | 75 | 1005.2 |
| 20260506213003 | 13 | 89 | 3.2 | 6.4 | 0.00 | 0.00 | 0.00 | 76 | 1004.9 |
| 20260506210024 | 13 | 89 | 9.7 | 16.1 | 0.00 | 0.00 | 0.00 | 77 | 1004.7 |
| 20260506203003 | 13 | 102 | 8.0 | 14.5 | 0.00 | 0.00 | 0.00 | 77 | 1004.8 |
| 20260506200003 | 13 | 94 | 12.9 | 20.9 | 0.00 | 0.00 | 0.00 | 77 | 1004.8 |
| 20260506195003 | 13 | 91 | 12.9 | 20.9 | 0.00 | 0.00 | 0.00 | 75 | 1004.9 |
| 20260506193003 | 14 | 65 | 6.4 | 12.9 | 0.00 | 0.00 | 0.00 | 74 | 1005.0 |
| 20260506190004 | 14 | 320 | 8.0 | 22.5 | 0.00 | 0.00 | 0.00 | 77 | 1005.0 |
| 20260506183003 | 15 | 349 | 9.7 | 29.0 | 0.00 | 0.00 | 0.00 | 77 | 1004.8 |
| 20260506180004 | 16 | 70 | 4.8 | 9.7 | 0.00 | 0.00 | 0.00 | 67 | 1004.1 |
| 20260506173003 | 17 | 92 | 9.7 | 14.5 | 0.00 | 0.00 | 0.00 | 66 | 1004.1 |
| 20260506170024 | 16 | 6 | 6.4 | 14.5 | 0.00 | 0.00 | 0.00 | 67 | 1004.2 |
| 20260506163003 | 19 | 183 | 14.5 | 29.0 | 0.00 | 0.00 | 0.00 | 57 | 1004.5 |
| 20260506160003 | 20 | 156 | 19.3 | 43.5 | 0.00 | 0.00 | 0.00 | 51 | 1004.4 |
| 20260506153003 | 20 | 148 | 16.1 | 25.7 | 0.00 | 0.00 | 0.00 | 52 | 1004.7 |
| 20260506150004 | 20 | 157 | 12.9 | 22.5 | 0.00 | 0.00 | 0.00 | 50 | 1004.9 |
| 20260506143004 | 20 | 146 | 8.0 | 12.9 | 0.00 | 0.00 | 0.00 | 50 | 1005.5 |
| 20260506140003 | 21 | 153 | 6.4 | 16.1 | 0.00 | 0.00 | 0.00 | 52 | 1005.6 |
| 20260506133004 | 20 | 148 | 14.5 | 22.5 | 0.00 | 0.00 | 0.00 | 49 | 1006.1 |
| 20260506130004 | 21 | 165 | 6.4 | 14.5 | 0.00 | 0.00 | 0.00 | 48 | 1006.1 |
| 20260506123003 | 21 | 191 | 4.8 | 9.7 | 0.00 | 0.00 | 0.00 | 46 | 1006.6 |
| 20260506120004 | 21 | 182 | 4.8 | 9.7 | 0.00 | 0.00 | 0.00 | 49 | 1007.0 |
| 20260506113003 | 21 | 222 | 8.0 | 17.7 | 0.00 | 0.00 | 0.00 | 48 | 1007.0 |
| 20260506110003 | 20 | 231 | 4.8 | 11.3 | 0.00 | 0.00 | 0.00 | 53 | 1007.1 |
| 20260506103003 | 20 | 256 | 9.7 | 25.7 | 0.00 | 0.00 | 0.00 | 53 | 1007.8 |
| 20260506100003 | 19 | 216 | 11.3 | 20.9 | 0.00 | 0.00 | 0.00 | 55 | 1007.6 |
| 20260506093024 | 18 | 224 | 8.0 | 22.5 | 0.00 | 0.00 | 0.00 | 60 | 1007.6 |
| 20260506090003 | 17 | 223 | 9.7 | 20.9 | 0.00 | 0.00 | 0.00 | 63 | 1007.5 |
| 20260506083003 | 17 | 241 | 9.7 | 20.9 | 0.00 | 0.00 | 0.00 | 66 | 1007.6 |
| 20260506073024 | 15 | 272 | 11.3 | 19.3 | 0.00 | 0.00 | 0.00 | 71 | 1007.5 |
| 20260506043004 | 11 | 171 | 3.2 | 6.4 | 0.00 | 0.00 | 0.00 | 86 | 1006.5 |
| 20260506040003 | 11 | 144 | 3.2 | 6.4 | 0.00 | 0.00 | 0.00 | 84 | 1006.2 |
| 20260506033004 | 11 | 193 | 4.8 | 9.7 | 0.00 | 0.00 | 0.00 | 86 | 1006.2 |
| 20260506030024 | 12 | 189 | 6.4 | 9.7 | 0.00 | 0.00 | 0.00 | 81 | 1006.2 |
| 20260506023003 | 12 | 187 | 4.8 | 6.4 | 0.00 | 0.00 | 0.00 | 79 | 1005.8 |